createdAt,value
2022-10-19T00:02:01.124Z,75.29
2022-10-19T00:04:30.886Z,75.75
2022-10-19T00:06:57.830Z,75.51
2022-10-19T00:09:30.195Z,75.92
2022-10-19T00:12:01.684Z,75.89
2022-10-19T00:14:29.162Z,76.35
2022-10-19T00:16:58.918Z,76.48
2022-10-19T00:19:27.809Z,76.18
2022-10-19T00:21:55.335Z,75.86
2022-10-19T00:24:27.515Z,75.88
2022-10-19T00:26:55.540Z,76.32
2022-10-19T00:29:23.640Z,76.12
2022-10-19T00:31:51.442Z,76.32
2022-10-19T00:34:18.686Z,76.64
2022-10-19T00:36:45.519Z,75.75
2022-10-19T00:39:15.740Z,75.98
2022-10-19T00:41:46.654Z,76.15
2022-10-19T00:44:13.316Z,76.44
2022-10-19T00:46:45.962Z,76.79
2022-10-19T00:49:24.380Z,76.52
2022-10-19T00:51:59.536Z,76.97
2022-10-19T00:54:26.238Z,76.68
2022-10-19T00:56:59.894Z,76.63
2022-10-19T00:59:28.193Z,76.20
2022-10-19T01:02:07.304Z,76.64
2022-10-19T01:04:46.894Z,76.44
2022-10-19T01:07:16.557Z,76.52
2022-10-19T01:09:43.475Z,76.67
2022-10-19T01:12:28.356Z,76.53
2022-10-19T01:15:19.115Z,76.75
2022-10-19T01:18:08.234Z,77.00
2022-10-19T01:20:58.227Z,77.21
2022-10-19T01:23:24.979Z,77.00
2022-10-19T01:25:54.676Z,76.91
2022-10-19T01:28:40.582Z,77.09
2022-10-19T01:31:27.868Z,77.29
2022-10-19T01:34:17.792Z,77.17
2022-10-19T01:37:16.697Z,77.14
2022-10-19T01:40:01.811Z,76.49
2022-10-19T01:42:59.284Z,76.90
2022-10-19T01:46:04.720Z,77.13
2022-10-19T01:48:42.035Z,77.40
2022-10-19T01:51:16.625Z,76.61
2022-10-19T01:53:54.558Z,76.04
2022-10-19T01:56:35.405Z,76.96
2022-10-19T01:59:06.827Z,76.80
2022-10-19T02:01:42.797Z,77.02
2022-10-19T02:04:11.431Z,76.98
2022-10-19T02:06:38.461Z,77.43
2022-10-19T02:09:05.209Z,77.28
2022-10-19T02:11:32.737Z,77.79
2022-10-19T02:14:11.429Z,77.21
2022-10-19T02:16:51.462Z,76.54
2022-10-19T02:19:27.401Z,76.05
2022-10-19T02:21:54.421Z,76.07
2022-10-19T02:24:22.444Z,76.44
2022-10-19T02:26:53.691Z,76.70
2022-10-19T02:29:31.744Z,76.75
2022-10-19T02:32:03.945Z,76.88
2022-10-19T02:34:30.936Z,76.96
2022-10-19T02:37:06.746Z,76.78
2022-10-19T02:39:42.258Z,77.24
2022-10-19T02:42:54.142Z,77.03
2022-10-19T02:45:37.182Z,77.32
2022-10-19T02:48:23.109Z,77.50
2022-10-19T02:50:49.935Z,77.78
2022-10-19T02:53:16.889Z,77.31
2022-10-19T02:55:46.153Z,77.43
2022-10-19T02:58:15.532Z,77.26
2022-10-19T03:01:08.507Z,77.05
2022-10-19T03:03:35.295Z,77.49
2022-10-19T03:06:11.085Z,78.08
2022-10-19T03:08:44.083Z,78.24
2022-10-19T03:11:10.767Z,77.00
2022-10-19T03:13:45.360Z,76.65
2022-10-19T03:16:15.996Z,76.49
2022-10-19T03:18:47.799Z,76.69
2022-10-19T03:21:14.538Z,77.27
2022-10-19T03:23:44.743Z,77.39
2022-10-19T03:26:15.065Z,77.57
2022-10-19T03:28:41.985Z,77.87
2022-10-19T03:31:13.203Z,78.29
2022-10-19T03:33:45.499Z,78.91
2022-10-19T03:36:22.262Z,78.97
2022-10-19T03:38:59.124Z,78.93
2022-10-19T03:41:28.482Z,79.16
2022-10-19T03:43:55.722Z,79.12
2022-10-19T03:46:25.255Z,79.33
2022-10-19T03:48:52.559Z,78.88
2022-10-19T03:51:21.979Z,78.29
2022-10-19T03:53:53.227Z,79.07
2022-10-19T03:56:29.064Z,79.03
2022-10-19T03:59:01.749Z,78.77
2022-10-19T04:01:43.981Z,78.44
2022-10-19T04:07:01.529Z,79.09
2022-10-19T04:09:32.270Z,78.70
2022-10-19T04:12:01.835Z,78.55
2022-10-19T04:14:39.367Z,77.88
2022-10-19T04:17:23.691Z,78.82
2022-10-19T04:19:52.533Z,78.72
2022-10-19T04:22:19.409Z,78.39
2022-10-19T04:24:46.149Z,77.61
2022-10-19T04:27:12.903Z,77.88
2022-10-19T04:29:39.604Z,78.44
2022-10-19T04:32:06.472Z,79.16
2022-10-19T04:34:35.273Z,79.22
2022-10-19T04:37:06.931Z,78.92
2022-10-19T04:39:33.691Z,79.63
2022-10-19T04:42:10.047Z,78.52
2022-10-19T04:44:39.752Z,78.44
2022-10-19T04:47:06.507Z,78.89
2022-10-19T04:49:36.106Z,79.15
2022-10-19T04:52:07.225Z,79.21
2022-10-19T04:54:40.233Z,78.61
2022-10-19T04:57:06.971Z,79.34
2022-10-19T04:59:34.005Z,79.08
2022-10-19T05:02:06.278Z,79.38
2022-10-19T05:04:33.165Z,79.13
2022-10-19T05:06:59.964Z,79.47
2022-10-19T05:09:30.286Z,79.69
2022-10-19T05:11:57.356Z,78.95
2022-10-19T05:14:29.757Z,78.22
2022-10-19T05:17:02.093Z,78.15
2022-10-19T05:19:30.988Z,79.01
2022-10-19T05:22:02.119Z,78.66
2022-10-19T05:24:28.812Z,78.77
2022-10-19T05:26:57.457Z,79.26
2022-10-19T06:14:54.122Z,79.11
2022-10-19T06:17:20.755Z,79.68
2022-10-19T06:19:47.501Z,80.11
2022-10-19T06:22:14.182Z,80.47
2022-10-19T06:24:41.155Z,80.58
2022-10-19T06:27:08.241Z,79.96
2022-10-19T06:29:38.290Z,79.64
2022-10-19T06:32:07.555Z,79.17
2022-10-19T06:34:34.557Z,79.14
2022-10-19T06:37:03.684Z,79.06
2022-10-19T06:39:30.403Z,78.80
2022-10-19T06:41:57.037Z,79.19
2022-10-19T06:44:23.861Z,79.00
2022-10-19T06:46:51.829Z,78.39
2022-10-19T06:49:18.862Z,78.59
2022-10-19T06:51:45.786Z,78.25
2022-10-19T06:54:12.579Z,78.06
2022-10-19T06:56:39.367Z,77.56
2022-10-19T06:59:06.159Z,77.12
2022-10-19T07:01:32.787Z,77.42
2022-10-19T07:03:59.467Z,76.20
2022-10-19T07:06:27.895Z,75.94
2022-10-19T07:08:58.097Z,75.63
2022-10-19T07:11:24.897Z,76.08
2022-10-19T07:13:52.971Z,76.09
2022-10-19T07:16:21.982Z,75.68
2022-10-19T07:18:51.181Z,75.33
2022-10-19T07:21:18.517Z,75.45
2022-10-19T07:23:47.349Z,74.82
2022-10-19T07:26:24.041Z,74.03
2022-10-19T07:28:51.203Z,73.25
2022-10-19T07:31:20.704Z,72.43
2022-10-19T07:33:51.644Z,72.02
2022-10-19T07:36:18.338Z,71.84
2022-10-19T07:38:45.045Z,70.67
2022-10-19T07:41:17.862Z,69.51
2022-10-19T07:43:46.192Z,69.32
2022-10-19T07:46:15.944Z,67.82
2022-10-19T07:48:45.917Z,67.32
2022-10-19T07:51:15.017Z,67.98
2022-10-19T07:53:42.479Z,67.21
2022-10-19T07:56:15.815Z,65.69
2022-10-19T07:58:43.581Z,66.54
2022-10-19T08:01:14.688Z,66.11
2022-10-19T08:06:31.784Z,65.71
2022-10-19T08:09:06.541Z,65.39
2022-10-19T08:11:39.362Z,65.28
2022-10-19T08:14:06.435Z,65.65
2022-10-19T08:16:44.303Z,65.52
2022-10-19T08:19:13.331Z,65.34
2022-10-19T08:21:42.559Z,65.65
2022-10-19T08:24:11.243Z,66.04
2022-10-19T08:26:40.150Z,65.53
2022-10-19T08:29:18.981Z,65.05
2022-10-19T08:31:47.530Z,63.79
2022-10-19T08:34:15.728Z,64.16
2022-10-19T08:36:43.448Z,63.72
2022-10-19T08:39:12.863Z,63.75
2022-10-19T08:42:07.234Z,63.67
2022-10-19T08:44:56.446Z,63.65
2022-10-19T08:47:43.603Z,62.85
2022-10-19T08:50:28.754Z,62.73
2022-10-19T08:53:02.361Z,62.53
2022-10-19T08:56:04.829Z,61.83
2022-10-19T08:59:12.649Z,61.88
2022-10-19T09:01:55.947Z,61.98
2022-10-19T09:04:40.478Z,61.89
2022-10-19T09:07:20.055Z,61.56
2022-10-19T09:09:54.684Z,61.40
2022-10-19T09:12:58.412Z,61.14
2022-10-19T09:15:27.598Z,60.70
2022-10-19T09:17:54.351Z,60.88
2022-10-19T09:20:34.825Z,60.76
2022-10-19T09:23:18.686Z,61.09
2022-10-19T09:25:51.973Z,60.83
2022-10-19T09:28:39.839Z,59.04
2022-10-19T09:31:15.086Z,58.68
2022-10-19T09:33:43.377Z,58.44
2022-10-19T09:36:22.326Z,58.93
2022-10-19T09:38:57.344Z,58.32
2022-10-19T09:41:25.335Z,58.54
2022-10-19T09:43:54.800Z,58.59
2022-10-19T09:46:38.644Z,57.95
2022-10-19T09:49:06.128Z,58.46
2022-10-19T09:51:53.187Z,57.86
2022-10-19T09:54:26.092Z,57.66
2022-10-19T09:56:55.520Z,57.75
2022-10-19T09:59:25.816Z,57.89
2022-10-19T10:02:18.334Z,58.09
2022-10-19T10:05:07.552Z,57.36
2022-10-19T10:07:38.315Z,56.91
2022-10-19T10:10:11.974Z,55.96
2022-10-19T10:12:41.173Z,56.04
2022-10-19T10:15:08.656Z,56.30
2022-10-19T10:17:40.279Z,55.78
2022-10-19T10:20:31.723Z,55.84
2022-10-19T10:23:04.224Z,54.86
2022-10-19T10:25:34.587Z,54.50
2022-10-19T10:28:17.108Z,54.36
2022-10-19T10:30:48.263Z,54.00
2022-10-19T10:33:27.361Z,54.97
2022-10-19T10:36:10.792Z,54.41
2022-10-19T10:38:47.494Z,53.92
2022-10-19T10:41:24.176Z,54.48
2022-10-19T10:44:08.617Z,53.10
2022-10-19T10:47:05.701Z,53.20
2022-10-19T10:49:43.740Z,54.13
2022-10-19T10:52:18.466Z,54.07
2022-10-19T10:55:05.773Z,54.64
2022-10-19T10:57:44.448Z,54.90
2022-10-19T11:00:19.709Z,54.96
2022-10-19T11:03:08.795Z,54.66
2022-10-19T11:05:39.531Z,55.57
2022-10-19T11:08:12.658Z,56.34
2022-10-19T11:10:44.393Z,57.12
2022-10-19T11:13:27.722Z,55.52
2022-10-19T11:15:59.482Z,55.46
2022-10-19T11:18:32.432Z,55.15
2022-10-19T11:21:06.987Z,55.58
2022-10-19T11:23:57.039Z,55.75
2022-10-19T11:26:38.966Z,56.68
2022-10-19T11:29:14.997Z,55.47
2022-10-19T11:31:51.587Z,55.52
2022-10-19T11:34:54.504Z,56.11
2022-10-19T11:38:18.420Z,56.75
2022-10-19T11:41:19.224Z,56.85
2022-10-19T11:44:16.296Z,57.62
2022-10-19T11:46:49.046Z,57.31
2022-10-19T11:49:18.883Z,56.87
2022-10-19T11:52:04.412Z,56.96
2022-10-19T11:54:58.347Z,57.17
2022-10-19T11:57:35.014Z,57.73
2022-10-19T12:00:27.271Z,57.58
2022-10-19T12:03:17.190Z,57.98
2022-10-19T12:06:15.296Z,56.64
2022-10-19T12:11:25.298Z,55.44
2022-10-19T12:13:57.406Z,55.41
2022-10-19T12:16:27.140Z,55.28
2022-10-19T12:18:58.958Z,54.32
2022-10-19T12:21:33.736Z,54.97
2022-10-19T12:24:07.676Z,55.25
2022-10-19T12:26:36.751Z,56.06
2022-10-19T12:29:29.994Z,56.23
2022-10-19T12:31:58.196Z,55.33
2022-10-19T12:34:56.024Z,55.95
2022-10-19T12:40:17.454Z,55.91
2022-10-19T12:43:00.527Z,56.35
2022-10-19T12:45:39.507Z,56.40
2022-10-19T12:48:11.049Z,57.46
2022-10-19T12:50:54.092Z,56.96
2022-10-19T12:53:31.640Z,57.42
2022-10-19T12:56:12.107Z,56.88
2022-10-19T12:58:46.591Z,57.52
2022-10-19T13:01:26.180Z,57.46
2022-10-19T13:04:29.820Z,57.93
2022-10-19T13:07:10.897Z,57.92
2022-10-19T13:09:41.687Z,58.23
2022-10-19T13:12:21.818Z,58.02
2022-10-19T13:14:55.191Z,55.86
2022-10-19T13:17:34.402Z,55.93
2022-10-19T13:20:20.742Z,56.42
2022-10-19T13:23:11.777Z,56.71
2022-10-19T13:25:41.126Z,57.62
2022-10-19T13:28:10.348Z,57.77
2022-10-19T13:30:41.817Z,57.72
2022-10-19T13:33:44.614Z,57.18
2022-10-19T13:36:12.314Z,56.80
2022-10-19T13:38:54.377Z,56.73
2022-10-19T13:41:26.248Z,56.83
2022-10-19T13:44:03.247Z,57.27
2022-10-19T13:46:29.831Z,57.20
2022-10-19T13:49:10.067Z,57.44
2022-10-19T13:51:50.230Z,57.26
2022-10-19T13:54:33.187Z,56.46
2022-10-19T13:57:38.926Z,56.66
2022-10-19T14:00:44.351Z,57.40
2022-10-19T14:03:51.506Z,57.59
2022-10-19T14:06:32.958Z,57.97
2022-10-19T14:09:15.278Z,58.04
2022-10-19T14:11:42.993Z,57.97
2022-10-19T14:14:20.888Z,57.47
2022-10-19T14:16:58.324Z,57.00
2022-10-19T14:19:48.720Z,57.26
2022-10-19T14:22:30.700Z,58.12
2022-10-19T14:25:24.355Z,56.73
2022-10-19T14:27:58.439Z,57.27
2022-10-19T14:30:32.108Z,57.52
2022-10-19T14:33:03.945Z,57.66
2022-10-19T14:35:37.127Z,56.84
2022-10-19T14:38:11.503Z,55.71
2022-10-19T14:40:40.802Z,56.55
2022-10-19T14:43:35.905Z,57.22
2022-10-19T14:46:08.689Z,57.43
2022-10-19T14:48:37.772Z,57.39
2022-10-19T14:51:21.176Z,57.00
2022-10-19T14:53:53.007Z,57.53
2022-10-19T14:56:35.069Z,57.64
2022-10-19T14:59:37.146Z,57.28
2022-10-19T15:02:25.958Z,57.77
2022-10-19T15:04:54.918Z,57.92
2022-10-19T15:07:29.247Z,57.32
2022-10-19T15:10:01.327Z,57.87
2022-10-19T15:12:29.897Z,57.78
2022-10-19T15:14:57.998Z,57.92
2022-10-19T15:17:31.229Z,57.92
2022-10-19T15:20:04.436Z,57.95
2022-10-19T15:22:31.326Z,57.13
2022-10-19T15:25:05.915Z,57.56
2022-10-19T15:27:38.402Z,57.57
2022-10-19T15:30:23.537Z,58.10
2022-10-19T15:32:54.507Z,58.20
2022-10-19T15:35:47.542Z,58.26
2022-10-19T15:38:23.337Z,58.20
2022-10-19T15:40:58.732Z,58.35
2022-10-19T15:43:34.543Z,58.52
2022-10-19T15:46:13.505Z,58.07
2022-10-19T15:48:57.693Z,57.55
2022-10-19T15:51:27.832Z,58.49
2022-10-19T15:53:57.799Z,58.59
2022-10-19T15:56:31.137Z,58.42
2022-10-19T15:58:59.977Z,58.30
2022-10-19T16:01:30.139Z,58.52
2022-10-19T16:03:57.290Z,58.66
2022-10-19T16:06:28.796Z,58.45
2022-10-19T16:08:55.868Z,59.06
2022-10-19T16:11:26.435Z,59.14
2022-10-19T16:13:53.215Z,59.12
2022-10-19T16:16:32.569Z,58.95
2022-10-19T16:19:02.687Z,59.10
2022-10-19T16:21:33.462Z,59.14
2022-10-19T16:24:00.663Z,59.34
2022-10-19T16:26:27.715Z,59.10
2022-10-19T16:28:55.690Z,58.97
2022-10-19T16:31:24.232Z,59.35
2022-10-19T16:33:51.273Z,59.06
2022-10-19T16:36:20.473Z,59.27
2022-10-19T16:38:48.837Z,59.42
2022-10-19T16:41:17.304Z,59.24
2022-10-19T16:43:44.760Z,59.40
2022-10-19T16:46:11.713Z,59.58
2022-10-19T16:48:38.746Z,59.52
2022-10-19T16:51:05.799Z,59.68
2022-10-19T16:53:33.153Z,60.04
2022-10-19T16:56:11.019Z,59.98
2022-10-19T16:58:41.311Z,59.90
2022-10-19T17:03:41.803Z,60.44
2022-10-19T17:06:10.685Z,60.22
2022-10-19T17:09:07.392Z,60.46
2022-10-19T17:11:26.994Z,60.69
2022-10-19T17:13:56.775Z,61.07
2022-10-19T17:16:24.567Z,61.12
2022-10-19T17:18:54.344Z,61.22
2022-10-19T17:21:24.064Z,61.29
2022-10-19T17:23:56.645Z,61.27
2022-10-19T17:26:30.655Z,61.37
2022-10-19T17:28:59.055Z,61.15
2022-10-19T17:31:26.368Z,61.56
2022-10-19T17:33:53.905Z,61.58
2022-10-19T17:36:27.305Z,61.82
2022-10-19T17:39:01.592Z,62.06
2022-10-19T17:41:29.487Z,62.00
2022-10-19T17:43:56.487Z,61.77
2022-10-19T17:46:34.161Z,61.84
2022-10-19T17:49:01.295Z,61.63
2022-10-19T17:51:34.669Z,61.35
2022-10-19T17:54:07.849Z,61.34
2022-10-19T17:56:39.333Z,61.42
2022-10-19T17:59:08.080Z,61.61
2022-10-19T18:01:35.594Z,61.87
2022-10-19T18:04:02.619Z,61.65
2022-10-19T18:06:34.009Z,61.10
2022-10-19T18:09:02.241Z,61.34
2022-10-19T18:11:32.316Z,61.36
2022-10-19T18:14:03.963Z,61.71
2022-10-19T18:16:34.098Z,61.70
2022-10-19T18:19:04.497Z,61.03
2022-10-19T18:21:35.847Z,61.37
2022-10-19T18:24:03.670Z,61.54
2022-10-19T18:26:32.986Z,61.95
2022-10-19T18:29:01.874Z,62.30
2022-10-19T18:31:30.850Z,62.24
2022-10-19T18:34:03.307Z,62.81
2022-10-19T18:36:31.126Z,62.73
2022-10-19T18:39:04.809Z,63.26
2022-10-19T18:41:32.198Z,63.55
2022-10-19T18:44:04.428Z,63.89
2022-10-19T18:46:34.547Z,64.24
2022-10-19T18:49:03.470Z,64.09
2022-10-19T18:51:32.110Z,64.12
2022-10-19T18:53:59.172Z,63.48
2022-10-19T18:56:27.264Z,63.14
2022-10-19T18:58:57.583Z,63.20
2022-10-19T19:01:31.792Z,63.15
2022-10-19T19:04:06.641Z,63.12
2022-10-19T19:06:36.303Z,62.77
2022-10-19T19:09:11.534Z,62.41
2022-10-19T19:11:43.663Z,62.86
2022-10-19T19:14:25.449Z,63.99
2022-10-19T19:16:53.360Z,64.14
2022-10-19T19:19:20.710Z,63.08
2022-10-19T19:21:50.390Z,62.98
2022-10-19T19:24:22.399Z,63.34
2022-10-19T19:26:53.314Z,62.78
2022-10-19T19:29:21.934Z,62.55
2022-10-19T19:31:53.933Z,63.45
2022-10-19T19:34:21.047Z,64.28
2022-10-19T19:36:48.904Z,64.59
2022-10-19T19:39:18.930Z,65.24
2022-10-19T19:41:46.472Z,64.90
2022-10-19T19:44:15.627Z,65.36
2022-10-19T19:46:43.486Z,65.65
2022-10-19T19:49:11.791Z,66.12
2022-10-19T19:51:39.079Z,66.37
2022-10-19T19:54:05.996Z,66.45
2022-10-19T19:56:33.719Z,66.88
2022-10-19T19:59:03.773Z,66.89
2022-10-19T20:01:32.200Z,66.32
2022-10-19T20:06:31.154Z,66.51
2022-10-19T20:08:58.703Z,66.79
2022-10-19T20:11:28.464Z,67.42
2022-10-19T20:13:55.913Z,67.36
2022-10-19T20:16:28.300Z,67.92
2022-10-19T20:19:01.406Z,67.97
2022-10-19T20:21:37.814Z,68.37
2022-10-19T20:24:05.277Z,67.96
2022-10-19T20:26:32.780Z,68.00
2022-10-19T20:29:04.271Z,67.87
2022-10-19T20:31:33.684Z,68.45
2022-10-19T20:34:00.993Z,68.84
2022-10-19T20:36:31.608Z,69.19
2022-10-19T20:38:59.602Z,69.35
2022-10-19T20:41:29.501Z,69.51
2022-10-19T20:43:57.154Z,69.46
2022-10-19T20:46:27.043Z,69.28
2022-10-19T20:49:00.395Z,69.34
2022-10-19T20:51:33.716Z,69.50
2022-10-19T20:54:02.377Z,69.48
2022-10-19T20:56:40.965Z,69.77
2022-10-19T20:59:16.016Z,70.07
2022-10-19T21:01:51.248Z,70.20
2022-10-19T21:04:43.572Z,69.44
2022-10-19T21:07:14.726Z,68.83
2022-10-19T21:09:42.689Z,68.92
2022-10-19T21:12:11.020Z,68.89
2022-10-19T21:14:38.045Z,69.50
2022-10-19T21:17:11.287Z,69.73
2022-10-19T21:19:39.475Z,70.23
2022-10-19T21:22:06.519Z,70.29
2022-10-19T21:24:36.412Z,70.58
2022-10-19T21:27:06.804Z,70.91
2022-10-19T21:29:33.904Z,70.88
2022-10-19T21:32:02.701Z,71.06
2022-10-19T21:34:30.939Z,70.90
2022-10-19T21:37:01.127Z,71.01
2022-10-19T21:39:30.968Z,71.06
2022-10-19T21:41:58.761Z,71.39
2022-10-19T21:44:25.703Z,71.64
2022-10-19T21:46:52.577Z,71.51
2022-10-19T21:49:21.233Z,71.40
2022-10-19T21:51:57.157Z,71.50
2022-10-19T21:54:25.370Z,71.25
2022-10-19T21:56:53.465Z,71.54
2022-10-19T21:59:20.556Z,71.24
2022-10-19T22:01:48.610Z,71.69
2022-10-19T22:04:19.537Z,71.73
2022-10-19T22:06:48.259Z,71.86
2022-10-19T22:09:20.609Z,72.13
2022-10-19T22:11:48.073Z,71.81
2022-10-19T22:14:18.045Z,71.60
2022-10-19T22:16:45.076Z,71.33
2022-10-19T22:19:14.464Z,71.79
2022-10-19T22:21:44.336Z,71.63
2022-10-19T22:24:14.530Z,71.80
2022-10-19T22:26:51.002Z,71.55
2022-10-19T22:29:20.533Z,71.99
2022-10-19T22:31:47.455Z,72.20
2022-10-19T22:34:16.432Z,72.12
2022-10-19T22:36:44.785Z,72.12
2022-10-19T22:39:12.077Z,72.55
2022-10-19T22:41:47.863Z,72.67
2022-10-19T22:44:15.223Z,72.91
2022-10-19T22:46:44.828Z,73.01
2022-10-19T22:49:14.633Z,73.10
2022-10-19T22:51:43.170Z,73.18
2022-10-19T22:54:10.042Z,73.12
2022-10-19T22:56:36.917Z,73.09
2022-10-19T22:59:05.609Z,72.86
2022-10-19T23:01:35.239Z,73.26
2022-10-19T23:04:03.386Z,73.44
2022-10-19T23:06:31.533Z,73.59
2022-10-19T23:09:02.684Z,73.32
2022-10-19T23:11:29.491Z,73.74
2022-10-19T23:13:56.267Z,73.68
2022-10-19T23:16:23.047Z,74.00
2022-10-19T23:18:50.876Z,74.07
2022-10-19T23:21:17.638Z,74.21
2022-10-19T23:23:50.720Z,73.97
2022-10-19T23:26:19.846Z,73.65
2022-10-19T23:28:48.742Z,73.88
2022-10-19T23:31:24.801Z,73.69
2022-10-19T23:33:53.006Z,73.48
2022-10-19T23:36:25.761Z,74.03
2022-10-19T23:38:54.049Z,73.84
2022-10-19T23:41:23.208Z,74.02
2022-10-19T23:43:51.277Z,73.89
2022-10-19T23:46:21.241Z,74.10
2022-10-19T23:48:49.412Z,73.92
2022-10-19T23:51:18.808Z,73.98
2022-10-19T23:53:48.024Z,74.33
2022-10-19T23:56:19.812Z,74.63
2022-10-19T23:58:50.652Z,74.22
